sensor_id;sensor_type;location;lat;lon;timestamp;temperature;humidity
44447;DHT22;30152;52.066;5.358;2023-03-23T09:37:38;13.00;99.90
44447;DHT22;30152;52.066;5.358;2023-03-23T09:55:26;13.50;99.90
44447;DHT22;30152;52.066;5.358;2023-03-23T09:58:12;13.60;99.90
44447;DHT22;30152;52.066;5.358;2023-03-23T12:06:31;13.00;99.90
44447;DHT22;30152;52.066;5.358;2023-03-23T12:12:16;13.30;99.90
44447;DHT22;30152;52.066;5.358;2023-03-23T12:20:45;13.30;99.90
44447;DHT22;30152;52.066;5.358;2023-03-23T12:23:18;13.60;99.90
44447;DHT22;30152;52.066;5.358;2023-03-23T12:25:59;13.90;99.90
44447;DHT22;30152;52.066;5.358;2023-03-23T12:28:49;13.60;99.90
44447;DHT22;30152;52.066;5.358;2023-03-23T12:31:26;13.60;99.90
44447;DHT22;30152;52.066;5.358;2023-03-23T12:42:29;14.50;99.90
44447;DHT22;30152;52.066;5.358;2023-03-23T12:47:52;14.60;99.90
44447;DHT22;30152;52.066;5.358;2023-03-23T12:50:40;15.60;99.90
44447;DHT22;30152;52.066;5.358;2023-03-23T12:53:32;15.70;99.90
44447;DHT22;30152;52.066;5.358;2023-03-23T12:58:45;15.50;99.90
44447;DHT22;30152;52.066;5.358;2023-03-23T14:09:49;12.90;99.90
44447;DHT22;30152;52.066;5.358;2023-03-23T14:12:21;13.10;99.90
44447;DHT22;30152;52.066;5.358;2023-03-23T14:14:50;13.50;99.90
44447;DHT22;30152;52.066;5.358;2023-03-23T14:17:23;13.90;99.90
44447;DHT22;30152;52.066;5.358;2023-03-23T14:19:52;14.10;99.90
44447;DHT22;30152;52.066;5.358;2023-03-23T14:22:38;14.30;99.90
44447;DHT22;30152;52.066;5.358;2023-03-23T14:25:17;14.30;99.90
44447;DHT22;30152;52.066;5.358;2023-03-23T14:27:44;14.20;99.90
44447;DHT22;30152;52.066;5.358;2023-03-23T14:30:17;14.10;99.90
44447;DHT22;30152;52.066;5.358;2023-03-23T14:32:43;14.20;99.90
44447;DHT22;30152;52.066;5.358;2023-03-23T14:35:33;14.50;99.90
44447;DHT22;30152;52.066;5.358;2023-03-23T14:40:27;14.90;99.90
44447;DHT22;30152;52.066;5.358;2023-03-23T14:42:54;14.80;99.90
44447;DHT22;30152;52.066;5.358;2023-03-23T14:45:22;15.00;99.90
44447;DHT22;30152;52.066;5.358;2023-03-23T14:47:59;15.40;99.90
44447;DHT22;30152;52.066;5.358;2023-03-23T14:50:58;15.00;99.90
44447;DHT22;30152;52.066;5.358;2023-03-23T14:56:03;14.70;99.90
44447;DHT22;30152;52.066;5.358;2023-03-23T14:58:30;15.20;99.90
44447;DHT22;30152;52.066;5.358;2023-03-23T15:01:09;15.50;99.90
44447;DHT22;30152;52.066;5.358;2023-03-23T15:03:38;15.60;99.90
44447;DHT22;30152;52.066;5.358;2023-03-23T15:06:12;16.00;99.90
44447;DHT22;30152;52.066;5.358;2023-03-23T15:16:05;15.70;99.90
44447;DHT22;30152;52.066;5.358;2023-03-23T15:18:35;16.30;99.90
44447;DHT22;30152;52.066;5.358;2023-03-23T15:21:18;15.70;99.90
44447;DHT22;30152;52.066;5.358;2023-03-23T15:26:33;15.20;99.90
44447;DHT22;30152;52.066;5.358;2023-03-23T15:29:10;15.20;99.90
44447;DHT22;30152;52.066;5.358;2023-03-23T15:31:47;15.20;99.90
44447;DHT22;30152;52.066;5.358;2023-03-23T15:36:56;14.90;99.90
44447;DHT22;30152;52.066;5.358;2023-03-23T15:39:22;15.20;99.90
44447;DHT22;30152;52.066;5.358;2023-03-23T15:41:50;14.90;99.90
44447;DHT22;30152;52.066;5.358;2023-03-23T15:44:30;15.50;99.90
44447;DHT22;30152;52.066;5.358;2023-03-23T15:47:16;15.60;99.90
44447;DHT22;30152;52.066;5.358;2023-03-23T15:49:46;15.60;99.90
44447;DHT22;30152;52.066;5.358;2023-03-23T15:52:23;16.10;99.90
44447;DHT22;30152;52.066;5.358;2023-03-23T15:54:48;15.60;99.90
44447;DHT22;30152;52.066;5.358;2023-03-23T16:02:13;14.90;99.90
44447;DHT22;30152;52.066;5.358;2023-03-23T16:04:40;15.20;99.90
44447;DHT22;30152;52.066;5.358;2023-03-23T16:07:07;15.20;99.90
44447;DHT22;30152;52.066;5.358;2023-03-23T16:09:32;15.00;99.90
44447;DHT22;30152;52.066;5.358;2023-03-23T16:11:58;15.20;99.90
44447;DHT22;30152;52.066;5.358;2023-03-23T16:14:23;14.60;99.90
44447;DHT22;30152;52.066;5.358;2023-03-23T16:19:17;15.10;99.90
44447;DHT22;30152;52.066;5.358;2023-03-23T16:26:36;14.60;99.90
44447;DHT22;30152;52.066;5.358;2023-03-23T16:29:12;14.50;99.90
44447;DHT22;30152;52.066;5.358;2023-03-23T16:31:38;14.80;99.90
44447;DHT22;30152;52.066;5.358;2023-03-23T16:34:04;14.80;99.90
44447;DHT22;30152;52.066;5.358;2023-03-23T16:36:29;15.00;99.90
44447;DHT22;30152;52.066;5.358;2023-03-23T16:38:55;14.70;99.90
44447;DHT22;30152;52.066;5.358;2023-03-23T16:41:20;14.70;99.90
44447;DHT22;30152;52.066;5.358;2023-03-23T16:46:12;14.70;99.90
44447;DHT22;30152;52.066;5.358;2023-03-23T16:48:38;14.70;99.90
44447;DHT22;30152;52.066;5.358;2023-03-23T16:51:04;14.90;99.90
44447;DHT22;30152;52.066;5.358;2023-03-23T16:53:29;14.90;99.90
44447;DHT22;30152;52.066;5.358;2023-03-23T16:58:22;14.70;99.90
44447;DHT22;30152;52.066;5.358;2023-03-23T17:00:50;14.90;99.90
44447;DHT22;30152;52.066;5.358;2023-03-23T17:03:17;15.50;99.90
44447;DHT22;30152;52.066;5.358;2023-03-23T17:05:43;14.70;99.90
44447;DHT22;30152;52.066;5.358;2023-03-23T17:08:09;15.70;99.90
44447;DHT22;30152;52.066;5.358;2023-03-23T17:10:37;15.00;99.90
44447;DHT22;30152;52.066;5.358;2023-03-23T17:13:03;14.60;99.90
44447;DHT22;30152;52.066;5.358;2023-03-23T17:17:55;14.50;99.90
44447;DHT22;30152;52.066;5.358;2023-03-23T17:20:21;14.70;99.90
44447;DHT22;30152;52.066;5.358;2023-03-23T17:27:39;14.60;99.90
44447;DHT22;30152;52.066;5.358;2023-03-23T17:30:06;14.40;99.90
44447;DHT22;30152;52.066;5.358;2023-03-23T17:32:33;14.20;99.90
44447;DHT22;30152;52.066;5.358;2023-03-23T17:34:58;14.30;99.90
44447;DHT22;30152;52.066;5.358;2023-03-23T17:37:24;14.00;99.90
44447;DHT22;30152;52.066;5.358;2023-03-23T17:39:50;14.30;99.90
44447;DHT22;30152;52.066;5.358;2023-03-23T17:42:15;14.00;99.90
44447;DHT22;30152;52.066;5.358;2023-03-23T17:44:42;13.40;99.90
44447;DHT22;30152;52.066;5.358;2023-03-23T17:47:08;13.70;99.90
44447;DHT22;30152;52.066;5.358;2023-03-23T17:49:34;14.30;99.90
44447;DHT22;30152;52.066;5.358;2023-03-23T17:52:00;14.30;99.90
44447;DHT22;30152;52.066;5.358;2023-03-23T17:54:26;14.00;99.90
44447;DHT22;30152;52.066;5.358;2023-03-23T17:56:54;14.00;99.90
44447;DHT22;30152;52.066;5.358;2023-03-23T17:59:22;14.30;99.90
44447;DHT22;30152;52.066;5.358;2023-03-23T18:01:47;13.80;99.90
44447;DHT22;30152;52.066;5.358;2023-03-23T18:04:14;14.10;99.90
44447;DHT22;30152;52.066;5.358;2023-03-23T18:06:40;14.10;99.90
44447;DHT22;30152;52.066;5.358;2023-03-23T18:09:05;14.00;99.90
44447;DHT22;30152;52.066;5.358;2023-03-23T18:11:31;13.90;99.90
44447;DHT22;30152;52.066;5.358;2023-03-23T18:16:22;13.90;99.90
44447;DHT22;30152;52.066;5.358;2023-03-23T18:21:14;14.00;99.90
44447;DHT22;30152;52.066;5.358;2023-03-23T18:23:41;13.70;99.90
44447;DHT22;30152;52.066;5.358;2023-03-23T18:26:10;13.60;99.90
44447;DHT22;30152;52.066;5.358;2023-03-23T18:28:37;13.90;99.90
44447;DHT22;30152;52.066;5.358;2023-03-23T18:31:04;14.10;99.90
44447;DHT22;30152;52.066;5.358;2023-03-23T18:33:31;13.90;99.90
44447;DHT22;30152;52.066;5.358;2023-03-23T18:35:58;13.90;99.90
44447;DHT22;30152;52.066;5.358;2023-03-23T18:38:25;14.00;99.90
44447;DHT22;30152;52.066;5.358;2023-03-23T18:40:51;14.00;99.90
44447;DHT22;30152;52.066;5.358;2023-03-23T18:43:17;13.80;99.90
44447;DHT22;30152;52.066;5.358;2023-03-23T18:45:50;13.70;99.90
44447;DHT22;30152;52.066;5.358;2023-03-23T18:58:05;13.20;99.90
44447;DHT22;30152;52.066;5.358;2023-03-23T19:10:19;13.10;99.90
44447;DHT22;30152;52.066;5.358;2023-03-23T19:12:46;13.20;99.90
44447;DHT22;30152;52.066;5.358;2023-03-23T19:15:12;12.80;99.90
44447;DHT22;30152;52.066;5.358;2023-03-23T19:17:38;12.90;99.90
44447;DHT22;30152;52.066;5.358;2023-03-23T19:20:05;12.80;99.90
44447;DHT22;30152;52.066;5.358;2023-03-23T19:22:31;12.50;99.90
44447;DHT22;30152;52.066;5.358;2023-03-23T20:11:18;12.40;99.90
44447;DHT22;30152;52.066;5.358;2023-03-23T20:13:44;12.60;99.90
44447;DHT22;30152;52.066;5.358;2023-03-23T20:16:10;13.10;99.90
44447;DHT22;30152;52.066;5.358;2023-03-23T20:18:36;12.30;99.90
44447;DHT22;30152;52.066;5.358;2023-03-23T20:21:05;12.10;99.90
44447;DHT22;30152;52.066;5.358;2023-03-23T20:23:31;12.30;99.90
44447;DHT22;30152;52.066;5.358;2023-03-23T20:26:03;11.90;99.90
44447;DHT22;30152;52.066;5.358;2023-03-23T20:28:28;12.00;99.90
44447;DHT22;30152;52.066;5.358;2023-03-23T20:31:10;12.30;99.90
44447;DHT22;30152;52.066;5.358;2023-03-23T20:33:36;12.10;99.90
44447;DHT22;30152;52.066;5.358;2023-03-23T20:36:03;12.60;99.90
44447;DHT22;30152;52.066;5.358;2023-03-23T20:38:29;12.10;99.90
44447;DHT22;30152;52.066;5.358;2023-03-23T20:41:00;12.30;99.90
44447;DHT22;30152;52.066;5.358;2023-03-23T20:43:27;12.50;99.90
44447;DHT22;30152;52.066;5.358;2023-03-23T20:45:58;11.80;99.90
44447;DHT22;30152;52.066;5.358;2023-03-23T20:48:25;12.20;99.90
44447;DHT22;30152;52.066;5.358;2023-03-23T20:50:55;12.20;99.90
44447;DHT22;30152;52.066;5.358;2023-03-23T20:53:22;12.20;99.90
44447;DHT22;30152;52.066;5.358;2023-03-23T20:55:49;12.40;99.90
44447;DHT22;30152;52.066;5.358;2023-03-23T20:58:16;12.20;99.90
44447;DHT22;30152;52.066;5.358;2023-03-23T21:00:42;12.30;99.90
44447;DHT22;30152;52.066;5.358;2023-03-23T21:03:12;11.90;99.90
44447;DHT22;30152;52.066;5.358;2023-03-23T21:05:40;12.50;99.90
44447;DHT22;30152;52.066;5.358;2023-03-23T21:08:07;12.10;99.90
44447;DHT22;30152;52.066;5.358;2023-03-23T21:10:33;12.00;99.90
44447;DHT22;30152;52.066;5.358;2023-03-23T21:12:59;12.00;99.90
44447;DHT22;30152;52.066;5.358;2023-03-23T21:15:25;12.30;99.90
44447;DHT22;30152;52.066;5.358;2023-03-23T21:17:51;12.30;99.90
44447;DHT22;30152;52.066;5.358;2023-03-23T21:20:17;12.00;99.90
44447;DHT22;30152;52.066;5.358;2023-03-23T21:22:42;12.30;99.90
44447;DHT22;30152;52.066;5.358;2023-03-23T21:25:08;11.90;99.90
44447;DHT22;30152;52.066;5.358;2023-03-23T21:27:35;12.10;99.90
44447;DHT22;30152;52.066;5.358;2023-03-23T21:30:02;11.70;99.90
44447;DHT22;30152;52.066;5.358;2023-03-23T21:32:28;12.30;99.90
44447;DHT22;30152;52.066;5.358;2023-03-23T21:34:54;12.10;99.90
44447;DHT22;30152;52.066;5.358;2023-03-23T21:37:22;12.20;99.90
44447;DHT22;30152;52.066;5.358;2023-03-23T21:39:49;12.50;99.90
44447;DHT22;30152;52.066;5.358;2023-03-23T21:42:14;12.00;99.90
44447;DHT22;30152;52.066;5.358;2023-03-23T21:44:40;12.10;99.90
44447;DHT22;30152;52.066;5.358;2023-03-23T21:47:07;12.00;99.90
44447;DHT22;30152;52.066;5.358;2023-03-23T21:49:33;12.30;99.90
44447;DHT22;30152;52.066;5.358;2023-03-23T21:52:00;12.10;99.90
44447;DHT22;30152;52.066;5.358;2023-03-23T21:54:26;12.10;99.90
44447;DHT22;30152;52.066;5.358;2023-03-23T21:56:55;12.20;99.90
44447;DHT22;30152;52.066;5.358;2023-03-23T21:59:22;12.10;99.90
44447;DHT22;30152;52.066;5.358;2023-03-23T22:01:48;12.10;99.90
44447;DHT22;30152;52.066;5.358;2023-03-23T22:04:14;12.10;99.90
44447;DHT22;30152;52.066;5.358;2023-03-23T22:11:36;12.70;99.90
44447;DHT22;30152;52.066;5.358;2023-03-23T22:14:02;12.20;99.90
44447;DHT22;30152;52.066;5.358;2023-03-23T22:16:28;12.40;99.90
44447;DHT22;30152;52.066;5.358;2023-03-23T22:18:54;13.00;99.90
44447;DHT22;30152;52.066;5.358;2023-03-23T22:21:21;12.00;99.90
44447;DHT22;30152;52.066;5.358;2023-03-23T22:23:50;11.90;99.90
44447;DHT22;30152;52.066;5.358;2023-03-23T22:26:16;11.90;99.90
44447;DHT22;30152;52.066;5.358;2023-03-23T22:28:42;12.00;99.90
44447;DHT22;30152;52.066;5.358;2023-03-23T22:31:12;11.80;99.90
44447;DHT22;30152;52.066;5.358;2023-03-23T22:33:38;11.80;99.90
44447;DHT22;30152;52.066;5.358;2023-03-23T22:36:05;11.80;99.90
44447;DHT22;30152;52.066;5.358;2023-03-23T22:38:39;12.40;99.90
44447;DHT22;30152;52.066;5.358;2023-03-23T22:41:06;11.70;99.90
44447;DHT22;30152;52.066;5.358;2023-03-23T22:43:36;11.70;99.90
44447;DHT22;30152;52.066;5.358;2023-03-23T22:46:02;11.80;99.90
44447;DHT22;30152;52.066;5.358;2023-03-23T22:48:28;11.60;99.90
44447;DHT22;30152;52.066;5.358;2023-03-23T22:50:54;12.80;99.90
44447;DHT22;30152;52.066;5.358;2023-03-23T22:55:48;11.60;99.90
44447;DHT22;30152;52.066;5.358;2023-03-23T22:58:14;11.40;99.90
44447;DHT22;30152;52.066;5.358;2023-03-23T23:00:43;11.60;99.90
44447;DHT22;30152;52.066;5.358;2023-03-23T23:03:09;11.20;99.90
44447;DHT22;30152;52.066;5.358;2023-03-23T23:05:40;11.90;99.90
44447;DHT22;30152;52.066;5.358;2023-03-23T23:08:06;11.40;99.90
44447;DHT22;30152;52.066;5.358;2023-03-23T23:10:37;11.60;99.90
44447;DHT22;30152;52.066;5.358;2023-03-23T23:13:02;11.50;99.90
44447;DHT22;30152;52.066;5.358;2023-03-23T23:15:28;11.50;99.90
44447;DHT22;30152;52.066;5.358;2023-03-23T23:17:53;11.60;99.90
44447;DHT22;30152;52.066;5.358;2023-03-23T23:20:19;11.60;99.90
44447;DHT22;30152;52.066;5.358;2023-03-23T23:22:45;11.80;99.90
44447;DHT22;30152;52.066;5.358;2023-03-23T23:30:03;12.40;99.90
44447;DHT22;30152;52.066;5.358;2023-03-23T23:32:31;11.40;99.90
44447;DHT22;30152;52.066;5.358;2023-03-23T23:37:24;11.60;99.90
44447;DHT22;30152;52.066;5.358;2023-03-23T23:39:49;11.90;99.90
44447;DHT22;30152;52.066;5.358;2023-03-23T23:42:16;11.60;99.90
44447;DHT22;30152;52.066;5.358;2023-03-23T23:44:42;11.70;99.90
44447;DHT22;30152;52.066;5.358;2023-03-23T23:47:09;11.40;99.90
44447;DHT22;30152;52.066;5.358;2023-03-23T23:49:35;12.50;99.90
44447;DHT22;30152;52.066;5.358;2023-03-23T23:52:01;11.60;99.90
44447;DHT22;30152;52.066;5.358;2023-03-23T23:54:27;11.60;99.90
44447;DHT22;30152;52.066;5.358;2023-03-23T23:56:57;11.50;99.90
44447;DHT22;30152;52.066;5.358;2023-03-23T23:59:23;11.40;99.90
